sensor_id;sensor_type;location;lat;lon;timestamp;P1;durP1;ratioP1;P2;durP2;ratioP2
23336;SDS011;11840;45.414;12.372;2024-02-23T08:16:23;20.70;;;4.65;;
23336;SDS011;11840;45.414;12.372;2024-02-23T08:18:48;20.73;;;4.22;;
23336;SDS011;11840;45.414;12.372;2024-02-23T08:21:14;26.77;;;4.50;;
23336;SDS011;11840;45.414;12.372;2024-02-23T08:23:41;18.30;;;3.78;;
23336;SDS011;11840;45.414;12.372;2024-02-23T08:26:07;21.30;;;4.15;;
23336;SDS011;11840;45.414;12.372;2024-02-23T08:28:33;22.48;;;4.82;;
23336;SDS011;11840;45.414;12.372;2024-02-23T08:30:59;14.85;;;3.70;;
23336;SDS011;11840;45.414;12.372;2024-02-23T08:33:25;20.02;;;4.95;;
23336;SDS011;11840;45.414;12.372;2024-02-23T08:35:51;20.23;;;4.50;;
23336;SDS011;11840;45.414;12.372;2024-02-23T08:38:17;20.67;;;5.43;;
23336;SDS011;11840;45.414;12.372;2024-02-23T08:40:44;18.65;;;3.85;;
23336;SDS011;11840;45.414;12.372;2024-02-23T08:43:10;20.85;;;5.10;;
23336;SDS011;11840;45.414;12.372;2024-02-23T08:45:37;17.00;;;4.60;;
23336;SDS011;11840;45.414;12.372;2024-02-23T08:48:03;17.48;;;4.30;;
23336;SDS011;11840;45.414;12.372;2024-02-23T08:50:29;22.17;;;4.88;;
23336;SDS011;11840;45.414;12.372;2024-02-23T08:52:56;25.65;;;5.05;;
23336;SDS011;11840;45.414;12.372;2024-02-23T08:55:22;20.20;;;4.65;;
23336;SDS011;11840;45.414;12.372;2024-02-23T08:57:49;24.42;;;5.35;;
23336;SDS011;11840;45.414;12.372;2024-02-23T09:00:16;14.68;;;4.20;;
23336;SDS011;11840;45.414;12.372;2024-02-23T09:02:41;19.90;;;4.70;;
23336;SDS011;11840;45.414;12.372;2024-02-23T09:05:08;23.05;;;4.68;;
23336;SDS011;11840;45.414;12.372;2024-02-23T09:07:34;21.40;;;4.10;;
23336;SDS011;11840;45.414;12.372;2024-02-23T09:10:00;19.85;;;4.20;;
23336;SDS011;11840;45.414;12.372;2024-02-23T09:12:26;16.98;;;4.57;;
23336;SDS011;11840;45.414;12.372;2024-02-23T09:14:52;18.13;;;5.50;;
23336;SDS011;11840;45.414;12.372;2024-02-23T09:17:18;18.83;;;4.68;;
23336;SDS011;11840;45.414;12.372;2024-02-23T09:19:46;24.15;;;4.47;;
23336;SDS011;11840;45.414;12.372;2024-02-23T09:22:12;23.73;;;4.80;;
23336;SDS011;11840;45.414;12.372;2024-02-23T09:24:41;29.13;;;5.05;;
23336;SDS011;11840;45.414;12.372;2024-02-23T09:27:07;22.40;;;4.60;;
23336;SDS011;11840;45.414;12.372;2024-02-23T09:29:33;21.92;;;4.50;;
23336;SDS011;11840;45.414;12.372;2024-02-23T09:32:00;18.77;;;5.07;;
23336;SDS011;11840;45.414;12.372;2024-02-23T09:34:26;25.10;;;4.78;;
23336;SDS011;11840;45.414;12.372;2024-02-23T09:36:53;25.05;;;5.40;;
23336;SDS011;11840;45.414;12.372;2024-02-23T09:39:19;17.73;;;4.93;;
23336;SDS011;11840;45.414;12.372;2024-02-23T09:41:45;26.85;;;5.28;;
23336;SDS011;11840;45.414;12.372;2024-02-23T09:44:15;22.55;;;4.85;;
23336;SDS011;11840;45.414;12.372;2024-02-23T09:46:42;29.15;;;5.88;;
23336;SDS011;11840;45.414;12.372;2024-02-23T09:49:10;22.73;;;5.07;;
23336;SDS011;11840;45.414;12.372;2024-02-23T09:51:37;22.80;;;5.53;;
23336;SDS011;11840;45.414;12.372;2024-02-23T09:54:03;26.95;;;5.07;;
23336;SDS011;11840;45.414;12.372;2024-02-23T09:56:29;19.65;;;5.50;;
23336;SDS011;11840;45.414;12.372;2024-02-23T09:58:55;22.60;;;4.90;;
23336;SDS011;11840;45.414;12.372;2024-02-23T10:01:25;23.90;;;5.47;;
23336;SDS011;11840;45.414;12.372;2024-02-23T10:03:53;19.88;;;5.13;;
23336;SDS011;11840;45.414;12.372;2024-02-23T10:06:20;34.17;;;6.32;;
23336;SDS011;11840;45.414;12.372;2024-02-23T10:08:46;30.60;;;5.20;;
23336;SDS011;11840;45.414;12.372;2024-02-23T10:11:13;17.15;;;4.90;;
23336;SDS011;11840;45.414;12.372;2024-02-23T10:13:39;26.05;;;5.75;;
23336;SDS011;11840;45.414;12.372;2024-02-23T10:16:06;25.60;;;5.15;;
23336;SDS011;11840;45.414;12.372;2024-02-23T10:18:33;26.73;;;5.25;;
23336;SDS011;11840;45.414;12.372;2024-02-23T10:20:59;18.10;;;4.72;;
23336;SDS011;11840;45.414;12.372;2024-02-23T10:23:25;28.05;;;5.35;;
23336;SDS011;11840;45.414;12.372;2024-02-23T10:25:52;25.48;;;5.55;;
23336;SDS011;11840;45.414;12.372;2024-02-23T10:28:18;32.08;;;6.03;;
23336;SDS011;11840;45.414;12.372;2024-02-23T10:30:48;26.75;;;5.78;;
23336;SDS011;11840;45.414;12.372;2024-02-23T10:33:14;22.58;;;5.65;;
23336;SDS011;11840;45.414;12.372;2024-02-23T10:35:41;26.98;;;4.43;;
23336;SDS011;11840;45.414;12.372;2024-02-23T10:38:08;26.90;;;5.57;;
23336;SDS011;11840;45.414;12.372;2024-02-23T10:40:38;21.83;;;5.28;;
23336;SDS011;11840;45.414;12.372;2024-02-23T10:43:06;17.15;;;4.25;;
23336;SDS011;11840;45.414;12.372;2024-02-23T10:45:34;23.63;;;5.60;;
23336;SDS011;11840;45.414;12.372;2024-02-23T10:48:02;20.83;;;4.93;;
23336;SDS011;11840;45.414;12.372;2024-02-23T10:50:28;21.55;;;5.15;;
23336;SDS011;11840;45.414;12.372;2024-02-23T10:52:54;24.67;;;5.43;;
23336;SDS011;11840;45.414;12.372;2024-02-23T10:55:21;33.53;;;6.28;;
23336;SDS011;11840;45.414;12.372;2024-02-23T10:57:48;26.70;;;5.65;;
23336;SDS011;11840;45.414;12.372;2024-02-23T11:00:16;23.65;;;5.55;;
23336;SDS011;11840;45.414;12.372;2024-02-23T11:02:48;26.85;;;5.40;;
23336;SDS011;11840;45.414;12.372;2024-02-23T11:05:16;21.55;;;5.72;;
23336;SDS011;11840;45.414;12.372;2024-02-23T11:07:42;26.77;;;5.25;;
23336;SDS011;11840;45.414;12.372;2024-02-23T11:10:08;29.10;;;5.30;;
23336;SDS011;11840;45.414;12.372;2024-02-23T11:12:38;24.77;;;5.53;;
23336;SDS011;11840;45.414;12.372;2024-02-23T11:15:04;35.38;;;6.20;;
23336;SDS011;11840;45.414;12.372;2024-02-23T11:17:30;28.80;;;6.13;;
23336;SDS011;11840;45.414;12.372;2024-02-23T11:19:57;26.50;;;6.05;;
23336;SDS011;11840;45.414;12.372;2024-02-23T11:22:23;24.80;;;5.45;;
23336;SDS011;11840;45.414;12.372;2024-02-23T11:24:50;24.45;;;5.05;;
23336;SDS011;11840;45.414;12.372;2024-02-23T11:27:16;22.13;;;5.22;;
23336;SDS011;11840;45.414;12.372;2024-02-23T11:29:46;26.70;;;5.18;;
23336;SDS011;11840;45.414;12.372;2024-02-23T11:32:16;26.55;;;5.43;;
23336;SDS011;11840;45.414;12.372;2024-02-23T11:34:55;28.05;;;5.88;;
23336;SDS011;11840;45.414;12.372;2024-02-23T11:37:24;29.27;;;5.18;;
23336;SDS011;11840;45.414;12.372;2024-02-23T11:39:54;29.13;;;6.18;;
23336;SDS011;11840;45.414;12.372;2024-02-23T11:42:20;28.35;;;6.28;;
23336;SDS011;11840;45.414;12.372;2024-02-23T11:44:49;28.40;;;5.75;;
23336;SDS011;11840;45.414;12.372;2024-02-23T11:47:15;27.90;;;6.15;;
23336;SDS011;11840;45.414;12.372;2024-02-23T11:49:42;33.75;;;5.65;;
23336;SDS011;11840;45.414;12.372;2024-02-23T11:52:08;26.75;;;5.75;;
23336;SDS011;11840;45.414;12.372;2024-02-23T11:54:35;28.05;;;6.57;;
23336;SDS011;11840;45.414;12.372;2024-02-23T11:57:01;22.15;;;5.20;;
23336;SDS011;11840;45.414;12.372;2024-02-23T11:59:27;28.20;;;7.18;;
23336;SDS011;11840;45.414;12.372;2024-02-23T12:01:53;30.00;;;5.93;;
23336;SDS011;11840;45.414;12.372;2024-02-23T12:04:19;28.88;;;6.43;;
23336;SDS011;11840;45.414;12.372;2024-02-23T12:06:46;36.95;;;7.90;;
23336;SDS011;11840;45.414;12.372;2024-02-23T12:09:13;35.30;;;7.25;;
23336;SDS011;11840;45.414;12.372;2024-02-23T12:11:40;34.65;;;6.93;;
23336;SDS011;11840;45.414;12.372;2024-02-23T12:14:07;38.55;;;7.28;;
23336;SDS011;11840;45.414;12.372;2024-02-23T12:16:35;38.10;;;7.30;;
23336;SDS011;11840;45.414;12.372;2024-02-23T12:19:22;30.67;;;6.35;;
23336;SDS011;11840;45.414;12.372;2024-02-23T12:21:48;39.70;;;7.13;;
23336;SDS011;11840;45.414;12.372;2024-02-23T12:24:14;36.17;;;6.38;;
23336;SDS011;11840;45.414;12.372;2024-02-23T12:26:40;32.22;;;6.65;;
23336;SDS011;11840;45.414;12.372;2024-02-23T12:29:06;40.72;;;6.80;;
23336;SDS011;11840;45.414;12.372;2024-02-23T12:31:32;42.05;;;6.95;;
23336;SDS011;11840;45.414;12.372;2024-02-23T12:33:59;41.70;;;7.70;;
23336;SDS011;11840;45.414;12.372;2024-02-23T12:36:26;24.40;;;6.53;;
23336;SDS011;11840;45.414;12.372;2024-02-23T12:38:52;34.50;;;6.97;;
23336;SDS011;11840;45.414;12.372;2024-02-23T12:41:18;27.27;;;6.10;;
23336;SDS011;11840;45.414;12.372;2024-02-23T12:43:44;20.65;;;5.25;;
23336;SDS011;11840;45.414;12.372;2024-02-23T12:46:10;17.55;;;4.55;;
23336;SDS011;11840;45.414;12.372;2024-02-23T12:48:39;17.73;;;4.22;;
23336;SDS011;11840;45.414;12.372;2024-02-23T12:51:05;16.70;;;4.47;;
23336;SDS011;11840;45.414;12.372;2024-02-23T12:56:04;12.45;;;3.60;;
23336;SDS011;11840;45.414;12.372;2024-02-23T12:58:31;9.57;;;4.30;;
23336;SDS011;11840;45.414;12.372;2024-02-23T13:00:57;17.13;;;4.70;;
23336;SDS011;11840;45.414;12.372;2024-02-23T13:03:26;11.27;;;4.18;;
23336;SDS011;11840;45.414;12.372;2024-02-23T13:05:53;16.90;;;5.30;;
23336;SDS011;11840;45.414;12.372;2024-02-23T13:08:19;14.75;;;5.13;;
23336;SDS011;11840;45.414;12.372;2024-02-23T13:10:45;15.35;;;5.60;;
23336;SDS011;11840;45.414;12.372;2024-02-23T13:13:11;18.50;;;5.20;;
23336;SDS011;11840;45.414;12.372;2024-02-23T13:15:40;12.73;;;4.72;;
23336;SDS011;11840;45.414;12.372;2024-02-23T13:18:06;15.98;;;5.38;;
23336;SDS011;11840;45.414;12.372;2024-02-23T13:20:32;15.95;;;5.65;;
23336;SDS011;11840;45.414;12.372;2024-02-23T13:22:58;15.38;;;6.13;;
23336;SDS011;11840;45.414;12.372;2024-02-23T13:25:24;15.65;;;5.63;;
23336;SDS011;11840;45.414;12.372;2024-02-23T13:27:50;11.88;;;5.30;;
23336;SDS011;11840;45.414;12.372;2024-02-23T13:30:16;15.98;;;5.57;;
23336;SDS011;11840;45.414;12.372;2024-02-23T13:32:43;13.82;;;5.30;;
23336;SDS011;11840;45.414;12.372;2024-02-23T13:35:09;13.70;;;5.00;;
23336;SDS011;11840;45.414;12.372;2024-02-23T13:37:34;19.13;;;5.80;;
23336;SDS011;11840;45.414;12.372;2024-02-23T13:40:01;12.38;;;5.35;;
23336;SDS011;11840;45.414;12.372;2024-02-23T13:42:27;11.38;;;4.97;;
23336;SDS011;11840;45.414;12.372;2024-02-23T13:44:54;14.63;;;5.40;;
23336;SDS011;11840;45.414;12.372;2024-02-23T13:47:20;12.98;;;5.68;;
23336;SDS011;11840;45.414;12.372;2024-02-23T13:49:46;17.92;;;5.93;;
23336;SDS011;11840;45.414;12.372;2024-02-23T13:52:12;17.58;;;6.03;;
23336;SDS011;11840;45.414;12.372;2024-02-23T13:54:39;21.25;;;6.15;;
23336;SDS011;11840;45.414;12.372;2024-02-23T13:57:04;17.25;;;6.43;;
23336;SDS011;11840;45.414;12.372;2024-02-23T13:59:30;18.67;;;6.35;;
23336;SDS011;11840;45.414;12.372;2024-02-23T14:01:56;18.90;;;6.72;;
23336;SDS011;11840;45.414;12.372;2024-02-23T14:04:22;14.25;;;6.45;;
23336;SDS011;11840;45.414;12.372;2024-02-23T14:06:48;17.67;;;5.80;;
23336;SDS011;11840;45.414;12.372;2024-02-23T14:09:14;14.07;;;5.75;;
23336;SDS011;11840;45.414;12.372;2024-02-23T14:11:41;13.02;;;5.78;;
23336;SDS011;11840;45.414;12.372;2024-02-23T14:14:06;14.50;;;5.78;;
23336;SDS011;11840;45.414;12.372;2024-02-23T14:16:33;17.55;;;5.75;;
23336;SDS011;11840;45.414;12.372;2024-02-23T14:18:59;16.33;;;5.88;;
23336;SDS011;11840;45.414;12.372;2024-02-23T14:21:25;18.60;;;6.80;;
23336;SDS011;11840;45.414;12.372;2024-02-23T14:23:52;14.55;;;6.63;;
23336;SDS011;11840;45.414;12.372;2024-02-23T14:26:18;15.77;;;7.22;;
23336;SDS011;11840;45.414;12.372;2024-02-23T14:28:44;14.30;;;6.88;;
23336;SDS011;11840;45.414;12.372;2024-02-23T14:31:10;14.90;;;6.50;;
23336;SDS011;11840;45.414;12.372;2024-02-23T14:33:36;18.00;;;6.88;;
23336;SDS011;11840;45.414;12.372;2024-02-23T14:36:02;21.05;;;7.95;;
23336;SDS011;11840;45.414;12.372;2024-02-23T14:38:28;12.50;;;6.35;;
23336;SDS011;11840;45.414;12.372;2024-02-23T14:40:55;9.93;;;5.95;;
23336;SDS011;11840;45.414;12.372;2024-02-23T14:43:21;10.27;;;5.38;;
23336;SDS011;11840;45.414;12.372;2024-02-23T14:45:47;12.90;;;6.25;;
23336;SDS011;11840;45.414;12.372;2024-02-23T14:48:13;12.10;;;5.45;;
23336;SDS011;11840;45.414;12.372;2024-02-23T14:50:39;11.25;;;5.30;;
23336;SDS011;11840;45.414;12.372;2024-02-23T14:53:05;11.82;;;5.68;;
23336;SDS011;11840;45.414;12.372;2024-02-23T14:55:32;14.68;;;5.45;;
23336;SDS011;11840;45.414;12.372;2024-02-23T14:57:58;13.15;;;5.57;;
23336;SDS011;11840;45.414;12.372;2024-02-23T15:00:24;11.77;;;5.78;;
23336;SDS011;11840;45.414;12.372;2024-02-23T15:02:50;7.25;;;4.72;;
23336;SDS011;11840;45.414;12.372;2024-02-23T15:05:16;9.63;;;4.97;;
23336;SDS011;11840;45.414;12.372;2024-02-23T15:07:43;10.88;;;5.57;;
23336;SDS011;11840;45.414;12.372;2024-02-23T15:10:09;12.65;;;6.03;;
23336;SDS011;11840;45.414;12.372;2024-02-23T15:12:35;12.13;;;5.60;;
23336;SDS011;11840;45.414;12.372;2024-02-23T15:15:01;9.65;;;5.50;;
23336;SDS011;11840;45.414;12.372;2024-02-23T15:17:29;8.70;;;5.07;;
23336;SDS011;11840;45.414;12.372;2024-02-23T15:19:55;10.52;;;4.72;;
23336;SDS011;11840;45.414;12.372;2024-02-23T15:22:21;8.32;;;4.55;;
23336;SDS011;11840;45.414;12.372;2024-02-23T15:24:48;8.30;;;4.15;;
23336;SDS011;11840;45.414;12.372;2024-02-23T15:27:15;8.23;;;4.07;;
23336;SDS011;11840;45.414;12.372;2024-02-23T15:29:42;7.68;;;3.70;;
23336;SDS011;11840;45.414;12.372;2024-02-23T15:32:08;7.10;;;3.40;;
23336;SDS011;11840;45.414;12.372;2024-02-23T15:34:33;7.40;;;3.42;;
23336;SDS011;11840;45.414;12.372;2024-02-23T15:37:00;6.65;;;3.13;;
23336;SDS011;11840;45.414;12.372;2024-02-23T15:39:26;7.63;;;2.90;;
23336;SDS011;11840;45.414;12.372;2024-02-23T15:41:52;6.90;;;3.05;;
23336;SDS011;11840;45.414;12.372;2024-02-23T15:44:18;9.45;;;3.10;;
23336;SDS011;11840;45.414;12.372;2024-02-23T15:46:45;7.20;;;2.95;;
23336;SDS011;11840;45.414;12.372;2024-02-23T15:49:11;4.90;;;2.60;;
23336;SDS011;11840;45.414;12.372;2024-02-23T15:51:37;6.78;;;3.00;;
23336;SDS011;11840;45.414;12.372;2024-02-23T15:54:03;6.32;;;2.70;;
23336;SDS011;11840;45.414;12.372;2024-02-23T15:56:30;10.05;;;2.95;;
23336;SDS011;11840;45.414;12.372;2024-02-23T15:58:56;6.25;;;2.80;;
23336;SDS011;11840;45.414;12.372;2024-02-23T16:01:22;11.07;;;3.20;;
23336;SDS011;11840;45.414;12.372;2024-02-23T16:03:48;8.32;;;3.00;;
23336;SDS011;11840;45.414;12.372;2024-02-23T16:06:14;11.88;;;3.03;;
23336;SDS011;11840;45.414;12.372;2024-02-23T16:08:44;7.38;;;3.53;;
23336;SDS011;11840;45.414;12.372;2024-02-23T16:11:11;5.88;;;3.10;;
23336;SDS011;11840;45.414;12.372;2024-02-23T16:13:37;6.07;;;2.45;;
23336;SDS011;11840;45.414;12.372;2024-02-23T16:16:03;5.30;;;2.50;;
23336;SDS011;11840;45.414;12.372;2024-02-23T16:18:29;6.03;;;2.30;;
23336;SDS011;11840;45.414;12.372;2024-02-23T16:20:56;8.70;;;3.00;;
23336;SDS011;11840;45.414;12.372;2024-02-23T16:23:21;4.63;;;2.30;;
23336;SDS011;11840;45.414;12.372;2024-02-23T16:25:48;5.05;;;2.40;;
23336;SDS011;11840;45.414;12.372;2024-02-23T16:28:14;6.40;;;2.13;;
23336;SDS011;11840;45.414;12.372;2024-02-23T16:30:40;5.85;;;2.17;;
23336;SDS011;11840;45.414;12.372;2024-02-23T16:33:06;4.95;;;2.20;;
23336;SDS011;11840;45.414;12.372;2024-02-23T16:35:32;5.50;;;2.40;;
23336;SDS011;11840;45.414;12.372;2024-02-23T16:37:59;4.60;;;2.40;;
23336;SDS011;11840;45.414;12.372;2024-02-23T16:40:25;5.85;;;2.42;;
23336;SDS011;11840;45.414;12.372;2024-02-23T16:42:54;4.78;;;2.38;;
23336;SDS011;11840;45.414;12.372;2024-02-23T16:45:21;6.30;;;2.33;;
23336;SDS011;11840;45.414;12.372;2024-02-23T16:47:47;7.25;;;2.38;;
23336;SDS011;11840;45.414;12.372;2024-02-23T16:50:13;4.90;;;2.90;;
23336;SDS011;11840;45.414;12.372;2024-02-23T16:52:40;6.72;;;2.47;;
23336;SDS011;11840;45.414;12.372;2024-02-23T16:55:05;4.63;;;2.45;;
23336;SDS011;11840;45.414;12.372;2024-02-23T16:57:32;6.57;;;2.88;;
23336;SDS011;11840;45.414;12.372;2024-02-23T16:59:58;4.65;;;2.50;;
23336;SDS011;11840;45.414;12.372;2024-02-23T17:02:25;5.07;;;2.67;;
23336;SDS011;11840;45.414;12.372;2024-02-23T17:04:51;4.28;;;2.92;;
23336;SDS011;11840;45.414;12.372;2024-02-23T17:07:17;4.80;;;2.80;;
23336;SDS011;11840;45.414;12.372;2024-02-23T17:09:43;4.43;;;2.85;;
23336;SDS011;11840;45.414;12.372;2024-02-23T17:12:12;5.35;;;2.67;;
23336;SDS011;11840;45.414;12.372;2024-02-23T17:14:40;7.03;;;3.00;;
23336;SDS011;11840;45.414;12.372;2024-02-23T17:17:06;3.83;;;2.60;;
23336;SDS011;11840;45.414;12.372;2024-02-23T17:19:32;4.72;;;3.00;;
23336;SDS011;11840;45.414;12.372;2024-02-23T17:21:58;4.00;;;2.75;;
23336;SDS011;11840;45.414;12.372;2024-02-23T17:24:24;4.75;;;2.97;;
23336;SDS011;11840;45.414;12.372;2024-02-23T17:26:50;5.45;;;3.45;;
23336;SDS011;11840;45.414;12.372;2024-02-23T17:29:16;7.82;;;2.80;;
23336;SDS011;11840;45.414;12.372;2024-02-23T17:31:42;3.75;;;2.78;;
23336;SDS011;11840;45.414;12.372;2024-02-23T17:34:08;4.22;;;2.95;;
23336;SDS011;11840;45.414;12.372;2024-02-23T17:36:34;6.70;;;3.47;;
23336;SDS011;11840;45.414;12.372;2024-02-23T17:39:00;6.30;;;3.72;;
23336;SDS011;11840;45.414;12.372;2024-02-23T17:41:26;9.25;;;4.60;;
23336;SDS011;11840;45.414;12.372;2024-02-23T17:43:52;5.70;;;4.68;;
23336;SDS011;11840;45.414;12.372;2024-02-23T17:46:18;6.28;;;4.63;;
23336;SDS011;11840;45.414;12.372;2024-02-23T17:48:44;5.47;;;4.47;;
23336;SDS011;11840;45.414;12.372;2024-02-23T17:51:10;8.85;;;6.15;;
23336;SDS011;11840;45.414;12.372;2024-02-23T17:53:37;11.20;;;7.53;;
23336;SDS011;11840;45.414;12.372;2024-02-23T17:56:03;10.40;;;8.10;;
23336;SDS011;11840;45.414;12.372;2024-02-23T17:58:30;14.63;;;11.00;;
23336;SDS011;11840;45.414;12.372;2024-02-23T18:01:02;10.27;;;7.05;;
23336;SDS011;11840;45.414;12.372;2024-02-23T18:03:28;9.85;;;7.95;;
23336;SDS011;11840;45.414;12.372;2024-02-23T18:05:55;5.22;;;3.75;;
23336;SDS011;11840;45.414;12.372;2024-02-23T18:08:22;4.93;;;3.58;;
23336;SDS011;11840;45.414;12.372;2024-02-23T18:10:48;5.10;;;3.78;;
23336;SDS011;11840;45.414;12.372;2024-02-23T18:13:14;7.82;;;5.88;;
23336;SDS011;11840;45.414;12.372;2024-02-23T18:15:40;7.95;;;5.20;;
23336;SDS011;11840;45.414;12.372;2024-02-23T18:18:06;7.75;;;4.18;;
23336;SDS011;11840;45.414;12.372;2024-02-23T18:20:33;6.13;;;3.45;;
23336;SDS011;11840;45.414;12.372;2024-02-23T18:22:59;5.25;;;3.10;;
23336;SDS011;11840;45.414;12.372;2024-02-23T18:25:25;6.30;;;4.63;;
23336;SDS011;11840;45.414;12.372;2024-02-23T18:27:51;7.47;;;5.35;;
23336;SDS011;11840;45.414;12.372;2024-02-23T18:30:18;6.60;;;4.70;;
23336;SDS011;11840;45.414;12.372;2024-02-23T18:32:44;5.85;;;4.22;;
23336;SDS011;11840;45.414;12.372;2024-02-23T18:35:11;5.03;;;3.90;;
23336;SDS011;11840;45.414;12.372;2024-02-23T18:37:37;4.40;;;3.30;;
23336;SDS011;11840;45.414;12.372;2024-02-23T18:40:03;6.35;;;4.03;;
23336;SDS011;11840;45.414;12.372;2024-02-23T18:42:30;5.38;;;3.50;;
23336;SDS011;11840;45.414;12.372;2024-02-23T18:44:55;6.40;;;3.45;;
23336;SDS011;11840;45.414;12.372;2024-02-23T18:47:22;8.57;;;3.25;;
23336;SDS011;11840;45.414;12.372;2024-02-23T18:49:49;5.63;;;3.58;;
23336;SDS011;11840;45.414;12.372;2024-02-23T18:52:15;4.82;;;3.55;;
23336;SDS011;11840;45.414;12.372;2024-02-23T18:54:40;7.43;;;3.60;;
23336;SDS011;11840;45.414;12.372;2024-02-23T18:57:07;4.93;;;3.55;;
23336;SDS011;11840;45.414;12.372;2024-02-23T18:59:33;6.35;;;3.40;;
23336;SDS011;11840;45.414;12.372;2024-02-23T19:01:59;6.43;;;3.38;;
23336;SDS011;11840;45.414;12.372;2024-02-23T19:04:24;4.63;;;3.15;;
23336;SDS011;11840;45.414;12.372;2024-02-23T19:06:50;5.18;;;2.63;;
23336;SDS011;11840;45.414;12.372;2024-02-23T19:09:19;8.85;;;3.22;;
23336;SDS011;11840;45.414;12.372;2024-02-23T19:11:46;3.88;;;2.53;;
23336;SDS011;11840;45.414;12.372;2024-02-23T19:14:12;5.07;;;2.42;;
23336;SDS011;11840;45.414;12.372;2024-02-23T19:16:38;5.30;;;2.70;;
23336;SDS011;11840;45.414;12.372;2024-02-23T19:19:04;6.13;;;2.45;;
23336;SDS011;11840;45.414;12.372;2024-02-23T19:21:31;3.50;;;2.22;;
23336;SDS011;11840;45.414;12.372;2024-02-23T19:23:57;5.93;;;2.17;;
23336;SDS011;11840;45.414;12.372;2024-02-23T19:26:23;4.05;;;2.05;;
23336;SDS011;11840;45.414;12.372;2024-02-23T19:28:49;3.15;;;1.77;;
23336;SDS011;11840;45.414;12.372;2024-02-23T19:31:16;3.40;;;1.90;;
23336;SDS011;11840;45.414;12.372;2024-02-23T19:33:42;6.43;;;1.42;;
23336;SDS011;11840;45.414;12.372;2024-02-23T19:36:09;9.02;;;2.05;;
23336;SDS011;11840;45.414;12.372;2024-02-23T19:38:37;18.88;;;3.28;;
23336;SDS011;11840;45.414;12.372;2024-02-23T19:41:03;44.28;;;5.75;;
23336;SDS011;11840;45.414;12.372;2024-02-23T19:43:28;29.80;;;5.68;;
23336;SDS011;11840;45.414;12.372;2024-02-23T19:45:57;32.85;;;6.28;;
23336;SDS011;11840;45.414;12.372;2024-02-23T19:48:24;31.65;;;6.05;;
23336;SDS011;11840;45.414;12.372;2024-02-23T19:50:49;33.60;;;5.70;;
23336;SDS011;11840;45.414;12.372;2024-02-23T19:53:16;30.52;;;5.68;;
23336;SDS011;11840;45.414;12.372;2024-02-23T19:55:42;22.33;;;5.15;;
23336;SDS011;11840;45.414;12.372;2024-02-23T19:58:09;26.02;;;5.95;;
23336;SDS011;11840;45.414;12.372;2024-02-23T20:00:35;19.05;;;4.97;;
23336;SDS011;11840;45.414;12.372;2024-02-23T20:03:02;23.55;;;5.25;;
23336;SDS011;11840;45.414;12.372;2024-02-23T20:05:28;25.48;;;5.10;;
23336;SDS011;11840;45.414;12.372;2024-02-23T20:07:55;15.10;;;4.07;;
23336;SDS011;11840;45.414;12.372;2024-02-23T20:10:21;13.27;;;4.13;;
23336;SDS011;11840;45.414;12.372;2024-02-23T20:12:47;9.98;;;4.28;;
23336;SDS011;11840;45.414;12.372;2024-02-23T20:15:15;13.90;;;3.58;;
23336;SDS011;11840;45.414;12.372;2024-02-23T20:17:40;18.15;;;4.50;;
23336;SDS011;11840;45.414;12.372;2024-02-23T20:20:09;45.92;;;8.85;;
23336;SDS011;11840;45.414;12.372;2024-02-23T20:22:35;35.88;;;6.72;;
23336;SDS011;11840;45.414;12.372;2024-02-23T20:25:01;31.60;;;6.30;;
23336;SDS011;11840;45.414;12.372;2024-02-23T20:27:28;26.35;;;6.15;;
23336;SDS011;11840;45.414;12.372;2024-02-23T20:29:54;25.65;;;5.40;;
23336;SDS011;11840;45.414;12.372;2024-02-23T20:32:21;21.80;;;4.93;;
23336;SDS011;11840;45.414;12.372;2024-02-23T20:34:47;19.20;;;4.13;;
23336;SDS011;11840;45.414;12.372;2024-02-23T20:37:13;11.90;;;3.53;;
23336;SDS011;11840;45.414;12.372;2024-02-23T20:39:39;17.65;;;3.97;;
23336;SDS011;11840;45.414;12.372;2024-02-23T20:42:06;15.20;;;4.00;;
23336;SDS011;11840;45.414;12.372;2024-02-23T20:44:33;9.55;;;3.55;;
23336;SDS011;11840;45.414;12.372;2024-02-23T20:46:59;13.13;;;3.65;;
23336;SDS011;11840;45.414;12.372;2024-02-23T20:49:25;19.65;;;3.75;;
23336;SDS011;11840;45.414;12.372;2024-02-23T20:51:51;19.98;;;4.45;;
23336;SDS011;11840;45.414;12.372;2024-02-23T20:54:22;20.05;;;3.90;;
23336;SDS011;11840;45.414;12.372;2024-02-23T20:56:47;19.48;;;4.18;;
23336;SDS011;11840;45.414;12.372;2024-02-23T20:59:13;21.85;;;4.63;;
23336;SDS011;11840;45.414;12.372;2024-02-23T21:01:40;28.10;;;5.95;;
23336;SDS011;11840;45.414;12.372;2024-02-23T21:04:05;39.00;;;5.93;;
23336;SDS011;11840;45.414;12.372;2024-02-23T21:06:32;31.13;;;5.57;;
23336;SDS011;11840;45.414;12.372;2024-02-23T21:08:59;26.52;;;5.88;;
23336;SDS011;11840;45.414;12.372;2024-02-23T21:11:25;18.60;;;4.20;;
23336;SDS011;11840;45.414;12.372;2024-02-23T21:13:51;27.05;;;4.47;;
23336;SDS011;11840;45.414;12.372;2024-02-23T21:16:17;39.55;;;5.45;;
23336;SDS011;11840;45.414;12.372;2024-02-23T21:18:43;24.02;;;3.85;;
23336;SDS011;11840;45.414;12.372;2024-02-23T21:21:10;24.30;;;4.35;;
23336;SDS011;11840;45.414;12.372;2024-02-23T21:23:36;23.08;;;4.43;;
23336;SDS011;11840;45.414;12.372;2024-02-23T21:26:02;30.13;;;5.05;;
23336;SDS011;11840;45.414;12.372;2024-02-23T21:28:29;29.77;;;4.50;;
23336;SDS011;11840;45.414;12.372;2024-02-23T21:30:55;26.60;;;4.70;;
23336;SDS011;11840;45.414;12.372;2024-02-23T21:33:29;34.50;;;5.67;;
23336;SDS011;11840;45.414;12.372;2024-02-23T21:35:55;19.80;;;3.60;;
23336;SDS011;11840;45.414;12.372;2024-02-23T21:38:22;20.10;;;3.33;;
23336;SDS011;11840;45.414;12.372;2024-02-23T21:40:47;16.77;;;2.90;;
23336;SDS011;11840;45.414;12.372;2024-02-23T21:43:14;14.38;;;2.67;;
23336;SDS011;11840;45.414;12.372;2024-02-23T21:45:40;15.68;;;3.15;;
23336;SDS011;11840;45.414;12.372;2024-02-23T21:48:06;21.38;;;2.33;;
23336;SDS011;11840;45.414;12.372;2024-02-23T21:50:32;16.92;;;2.33;;
23336;SDS011;11840;45.414;12.372;2024-02-23T21:52:58;21.38;;;2.75;;
23336;SDS011;11840;45.414;12.372;2024-02-23T21:55:24;16.15;;;2.70;;
23336;SDS011;11840;45.414;12.372;2024-02-23T21:57:51;22.90;;;3.53;;
23336;SDS011;11840;45.414;12.372;2024-02-23T22:00:17;23.92;;;3.60;;
23336;SDS011;11840;45.414;12.372;2024-02-23T22:02:43;17.02;;;3.00;;
23336;SDS011;11840;45.414;12.372;2024-02-23T22:05:10;19.52;;;3.47;;
23336;SDS011;11840;45.414;12.372;2024-02-23T22:07:36;21.40;;;3.55;;
23336;SDS011;11840;45.414;12.372;2024-02-23T22:10:02;21.73;;;3.25;;
23336;SDS011;11840;45.414;12.372;2024-02-23T22:12:30;16.02;;;2.47;;
23336;SDS011;11840;45.414;12.372;2024-02-23T22:14:56;15.50;;;2.72;;
23336;SDS011;11840;45.414;12.372;2024-02-23T22:17:24;20.90;;;3.15;;
23336;SDS011;11840;45.414;12.372;2024-02-23T22:19:50;20.23;;;2.90;;
23336;SDS011;11840;45.414;12.372;2024-02-23T22:22:16;19.52;;;3.30;;
23336;SDS011;11840;45.414;12.372;2024-02-23T22:24:42;16.75;;;3.17;;
23336;SDS011;11840;45.414;12.372;2024-02-23T22:27:09;21.92;;;2.97;;
23336;SDS011;11840;45.414;12.372;2024-02-23T22:29:34;27.17;;;4.38;;
23336;SDS011;11840;45.414;12.372;2024-02-23T22:32:00;28.33;;;3.80;;
23336;SDS011;11840;45.414;12.372;2024-02-23T22:34:26;30.75;;;4.25;;
23336;SDS011;11840;45.414;12.372;2024-02-23T22:36:52;26.52;;;4.38;;
23336;SDS011;11840;45.414;12.372;2024-02-23T22:39:18;31.80;;;4.72;;